Time;durP1;ratioP1;P1;durP2;ratioP2;P2;SDS_P1;SDS_P2;PMS_P1;PMS_P2;Temp;Humidity;BMP_temperature;BMP_pressure;BME280_temperature;BME280_humidity;BME280_pressure;Samples;Min_cycle;Max_cycle;Signal;HPM_P1;HPM_P2
2021/12/06 00:02:26;;;;;;;13.45;3.83;;;2.40;99.90;;;;;;5035518;28;20500;-71
2021/12/06 00:04:53;;;;;;;11.80;3.95;;;2.40;99.90;;;;;;5036013;28;20057;-71
2021/12/06 00:07:22;;;;;;;9.77;3.90;;;2.40;99.90;;;;;;5035964;28;20029;-71
2021/12/06 00:09:48;;;;;;;9.18;4.20;;;2.40;99.90;;;;;;5036278;28;20380;-71
2021/12/06 00:12:15;;;;;;;12.88;4.22;;;2.30;99.90;;;;;;5034697;28;20112;-71
2021/12/06 00:14:41;;;;;;;8.05;3.67;;;2.30;99.90;;;;;;5034164;28;20433;-71
2021/12/06 00:17:14;;;;;;;11.95;4.60;;;2.20;99.90;;;;;;5035862;28;20025;-71
2021/12/06 00:19:41;;;;;;;12.33;4.00;;;2.20;99.90;;;;;;5036245;28;20108;-71
2021/12/06 00:22:11;;;;;;;12.43;3.92;;;2.20;99.90;;;;;;5034388;28;20501;-71
2021/12/06 00:24:36;;;;;;;21.70;4.68;;;2.20;99.90;;;;;;5035247;28;20029;-71
2021/12/06 00:27:02;;;;;;;14.00;4.20;;;2.20;99.90;;;;;;5034264;28;20036;-71
2021/12/06 00:29:28;;;;;;;8.85;3.72;;;2.20;99.90;;;;;;5035635;28;20499;-71
2021/12/06 00:31:54;;;;;;;13.20;3.90;;;2.10;99.90;;;;;;5035842;28;20053;-71
2021/12/06 00:34:21;;;;;;;13.60;4.43;;;2.20;99.90;;;;;;5035102;28;20489;-71
2021/12/06 00:37:05;;;;;;;9.73;3.40;;;2.20;99.90;;;;;;5035568;28;20029;-71
2021/12/06 00:39:32;;;;;;;16.63;4.53;;;2.20;99.90;;;;;;5035637;28;20493;-71
2021/12/06 00:41:59;;;;;;;20.60;4.05;;;2.10;99.90;;;;;;5034825;28;20108;-71
2021/12/06 00:44:24;;;;;;;6.82;3.45;;;2.10;99.90;;;;;;5035414;28;20028;-71
2021/12/06 00:46:51;;;;;;;10.20;4.57;;;2.00;99.90;;;;;;5035271;28;20021;-71
2021/12/06 00:49:16;;;;;;;11.75;5.70;;;2.10;99.90;;;;;;5035549;28;20049;-71
2021/12/06 00:51:42;;;;;;;14.18;5.13;;;2.10;99.90;;;;;;5035280;28;20500;-71
2021/12/06 00:54:10;;;;;;;9.65;4.13;;;2.10;99.90;;;;;;5034705;28;20553;-71
2021/12/06 00:56:37;;;;;;;10.73;3.78;;;2.10;99.90;;;;;;5035157;28;20101;-71
2021/12/06 00:59:03;;;;;;;11.23;5.03;;;2.10;99.90;;;;;;5035065;28;20543;-71
2021/12/06 01:01:29;;;;;;;15.73;3.92;;;2.10;99.90;;;;;;5035095;28;20053;-71
2021/12/06 01:03:55;;;;;;;17.08;4.80;;;2.10;99.90;;;;;;5034963;28;20084;-71
2021/12/06 01:06:21;;;;;;;16.95;4.15;;;2.10;99.90;;;;;;5034345;28;20018;-71
2021/12/06 01:08:46;;;;;;;10.73;4.07;;;2.10;99.90;;;;;;5034580;28;20026;-71
2021/12/06 01:11:12;;;;;;;7.72;3.53;;;2.00;99.90;;;;;;5035120;28;20072;-71
2021/12/06 01:13:39;;;;;;;17.92;5.00;;;1.90;99.90;;;;;;5034856;28;20036;-71
2021/12/06 01:16:06;;;;;;;16.90;3.95;;;1.90;99.90;;;;;;5034730;28;20083;-71
2021/12/06 01:18:33;;;;;;;6.85;4.07;;;1.90;99.90;;;;;;5034775;28;20510;-71
2021/12/06 01:21:21;;;;;;;9.45;4.10;;;1.90;99.90;;;;;;5034974;28;20029;-71
2021/12/06 01:24:00;;;;;;;22.10;4.22;;;1.90;99.90;;;;;;5034125;28;20030;-71
2021/12/06 01:31:58;;;;;;;15.20;4.55;;;1.80;99.90;;;;;;5046955;28;20028;-71
2021/12/06 01:39:53;;;;;;;12.70;4.55;;;1.70;99.90;;;;;;5046268;28;20041;-71
2021/12/06 01:42:19;;;;;;;13.23;4.20;;;1.70;99.90;;;;;;5033752;28;20030;-71
2021/12/06 01:44:48;;;;;;;9.43;4.82;;;1.70;99.90;;;;;;5034539;28;20021;-70
2021/12/06 01:47:22;;;;;;;11.00;3.88;;;1.70;99.90;;;;;;5032755;28;20377;-71
2021/12/06 01:50:10;;;;;;;6.88;3.97;;;1.70;99.90;;;;;;5032404;28;20461;-71
2021/12/06 01:52:42;;;;;;;14.27;3.97;;;1.60;99.90;;;;;;5036702;28;20492;-71
2021/12/06 01:55:11;;;;;;;10.17;4.20;;;1.60;99.90;;;;;;5041294;28;20021;-70
2021/12/06 01:57:38;;;;;;;10.70;4.75;;;1.60;99.90;;;;;;5053802;28;20051;-71
2021/12/06 02:00:22;;;;;;;8.70;3.83;;;1.60;99.90;;;;;;5053852;28;20025;-70
2021/12/06 02:02:48;;;;;;;8.82;4.13;;;1.60;99.90;;;;;;5053800;28;20476;-70
2021/12/06 02:05:13;;;;;;;9.20;4.07;;;1.60;99.90;;;;;;5047476;28;20030;-71
2021/12/06 02:07:39;;;;;;;15.13;3.58;;;1.60;99.90;;;;;;5033776;28;20446;-71
2021/12/06 02:10:07;;;;;;;9.13;3.83;;;1.60;99.90;;;;;;5034000;28;20030;-71
2021/12/06 02:12:33;;;;;;;8.82;4.15;;;1.60;99.90;;;;;;5033154;28;20064;-71
2021/12/06 02:17:33;;;;;;;9.02;4.50;;;1.60;99.90;;;;;;5033516;28;20032;-71
2021/12/06 02:20:04;;;;;;;;;;;1.60;99.90;;;;;;5034163;28;20021;-71
2021/12/06 02:22:31;;;;;;;8.02;4.25;;;1.60;99.90;;;;;;5032235;28;19909;-71
2021/12/06 02:24:57;;;;;;;7.57;4.32;;;1.50;99.90;;;;;;5032925;28;20362;-71
2021/12/06 02:27:27;;;;;;;9.98;3.92;;;1.60;99.90;;;;;;5033561;28;20044;-71
2021/12/06 02:29:55;;;;;;;18.73;4.30;;;1.60;99.90;;;;;;5033454;28;20038;-70
2021/12/06 02:32:21;;;;;;;13.02;4.70;;;1.60;99.90;;;;;;5033398;28;20040;-71
2021/12/06 02:34:54;;;;;;;15.85;4.72;;;1.60;99.90;;;;;;5033665;28;20029;-70
2021/12/06 02:37:27;;;;;;;14.37;4.47;;;1.60;99.90;;;;;;5033703;28;20021;-71
2021/12/06 02:39:54;;;;;;;10.52;5.50;;;1.60;99.90;;;;;;5032810;28;20310;-71
2021/12/06 02:42:20;;;;;;;11.95;4.88;;;1.60;99.90;;;;;;5033225;28;20060;-70
2021/12/06 02:44:47;;;;;;;18.38;4.70;;;1.60;99.90;;;;;;5040133;28;20037;-71
2021/12/06 02:47:15;;;;;;;6.55;3.97;;;1.70;99.90;;;;;;5033427;28;20469;-70
2021/12/06 02:49:41;;;;;;;11.90;4.55;;;1.70;99.90;;;;;;5033488;28;20488;-70
2021/12/06 02:52:07;;;;;;;11.88;4.53;;;1.60;99.90;;;;;;5032647;28;20409;-71
2021/12/06 02:54:34;;;;;;;9.90;3.95;;;1.60;99.90;;;;;;5048692;28;20496;-71
2021/12/06 02:59:40;;;;;;;11.35;4.47;;;1.70;99.90;;;;;;5052822;28;20028;-71
2021/12/06 03:02:16;;;;;;;14.55;5.03;;;1.70;99.90;;;;;;5052920;28;20056;-71
2021/12/06 03:04:42;;;;;;;12.70;5.22;;;1.70;99.90;;;;;;5053117;28;20042;-70
2021/12/06 03:07:09;;;;;;;16.98;5.25;;;1.70;99.90;;;;;;5052923;28;20480;-70
2021/12/06 03:09:38;;;;;;;23.85;5.10;;;1.70;99.90;;;;;;5052956;28;20025;-71
2021/12/06 03:12:09;;;;;;;16.65;4.88;;;1.60;99.90;;;;;;5053185;28;20032;-71
2021/12/06 03:14:40;;;;;;;14.20;5.05;;;1.70;99.90;;;;;;5050253;28;20033;-71
2021/12/06 03:17:09;;;;;;;12.20;4.65;;;1.60;99.90;;;;;;5052889;28;20050;-71
2021/12/06 03:19:36;;;;;;;13.70;4.80;;;1.60;99.90;;;;;;5042264;28;20041;-71
2021/12/06 03:22:02;;;;;;;7.68;5.20;;;1.60;99.90;;;;;;5052778;28;20021;-71
2021/12/06 03:24:28;;;;;;;14.52;5.25;;;1.60;99.90;;;;;;5052817;28;20028;-70
2021/12/06 03:26:54;;;;;;;11.82;4.68;;;1.70;99.90;;;;;;5040740;28;20030;-71
2021/12/06 03:29:20;;;;;;;17.77;5.57;;;1.70;99.90;;;;;;5033710;28;20017;-71
2021/12/06 03:31:47;;;;;;;15.93;4.93;;;1.70;99.90;;;;;;5037024;28;20472;-70
2021/12/06 03:34:13;;;;;;;14.68;5.18;;;1.70;99.90;;;;;;5036168;28;20774;-71
2021/12/06 03:36:39;;;;;;;10.88;4.72;;;1.80;99.90;;;;;;5036614;28;20432;-70
2021/12/06 03:39:20;;;;;;;14.48;5.22;;;1.70;99.90;;;;;;5036882;28;20481;-70
2021/12/06 03:41:46;;;;;;;10.95;4.40;;;1.70;99.90;;;;;;5043779;28;20037;-71
2021/12/06 03:44:12;;;;;;;13.02;4.75;;;1.70;99.90;;;;;;5043133;28;20060;-71
2021/12/06 03:46:38;;;;;;;18.02;5.00;;;1.70;99.90;;;;;;5056388;28;20024;-71
2021/12/06 03:49:11;;;;;;;11.90;5.15;;;1.70;99.90;;;;;;5055766;28;20021;-71
2021/12/06 03:51:37;;;;;;;;;;;1.70;99.90;;;;;;5056727;28;20031;-70
2021/12/06 03:54:03;;;;;;;10.43;4.68;;;1.70;99.90;;;;;;5056557;28;19909;-71
2021/12/06 03:56:29;;;;;;;8.95;4.75;;;1.70;99.90;;;;;;5037634;28;20025;-70
2021/12/06 03:58:55;;;;;;;12.80;4.72;;;1.70;99.90;;;;;;5036368;28;20030;-71
2021/12/06 04:01:21;;;;;;;11.90;4.55;;;1.70;99.90;;;;;;5036159;28;20030;-71
2021/12/06 04:03:47;;;;;;;13.35;4.45;;;1.70;99.90;;;;;;5035627;28;20083;-71
2021/12/06 04:06:14;;;;;;;12.35;5.28;;;1.70;99.90;;;;;;5036018;28;20393;-71
2021/12/06 04:08:39;;;;;;;9.15;4.68;;;1.70;99.90;;;;;;5034777;28;20029;-71
2021/12/06 04:11:05;;;;;;;12.63;4.75;;;1.60;99.90;;;;;;5035485;28;20026;-71
2021/12/06 04:13:31;;;;;;;12.73;4.40;;;1.70;99.90;;;;;;5036026;28;20025;-71
2021/12/06 04:15:57;;;;;;;14.25;5.40;;;1.60;99.90;;;;;;5035824;28;20537;-71
2021/12/06 04:18:23;;;;;;;16.73;4.85;;;1.50;99.90;;;;;;5034624;28;20520;-71
2021/12/06 04:20:49;;;;;;;18.45;5.43;;;1.40;99.90;;;;;;5035831;28;20029;-71
2021/12/06 04:23:15;;;;;;;21.10;5.68;;;1.30;99.90;;;;;;5033931;28;20028;-71
2021/12/06 04:25:41;;;;;;;10.05;4.82;;;1.20;99.90;;;;;;5035827;28;20080;-70
2021/12/06 04:28:08;;;;;;;15.35;5.18;;;1.10;99.90;;;;;;5037329;28;20435;-71
2021/12/06 04:30:36;;;;;;;13.38;4.95;;;1.00;99.90;;;;;;5036047;28;20024;-71
2021/12/06 04:33:03;;;;;;;15.82;6.60;;;1.00;99.90;;;;;;5035235;28;20362;-71
2021/12/06 04:35:29;;;;;;;24.35;5.43;;;1.00;99.90;;;;;;5051649;28;20021;-70
2021/12/06 04:37:56;;;;;;;16.00;5.07;;;1.00;99.90;;;;;;5055436;28;20507;-71
2021/12/06 04:40:21;;;;;;;17.27;6.30;;;1.00;99.90;;;;;;5054718;28;20071;-71
2021/12/06 04:42:47;;;;;;;13.63;5.85;;;1.00;99.90;;;;;;5054706;28;20021;-71
2021/12/06 04:45:15;;;;;;;13.52;5.10;;;1.00;99.90;;;;;;5035645;28;20056;-71
2021/12/06 04:47:41;;;;;;;26.33;6.28;;;1.00;99.90;;;;;;5034827;28;20018;-71
2021/12/06 04:50:09;;;;;;;12.43;6.05;;;1.10;99.90;;;;;;5035287;28;20030;-71
2021/12/06 04:52:35;;;;;;;13.75;5.32;;;1.10;99.90;;;;;;5035509;28;20481;-71
2021/12/06 04:55:04;;;;;;;18.70;5.57;;;1.20;99.90;;;;;;5035147;28;20159;-71
2021/12/06 04:57:41;;;;;;;16.95;5.65;;;1.30;99.90;;;;;;5035119;28;20082;-71
2021/12/06 05:00:16;;;;;;;25.38;5.22;;;1.40;99.90;;;;;;5035381;28;20029;-71
2021/12/06 05:02:42;;;;;;;13.88;5.10;;;1.40;99.90;;;;;;5034550;28;20029;-71
2021/12/06 05:05:23;;;;;;;14.00;5.18;;;1.50;99.90;;;;;;5034963;28;20032;-71
2021/12/06 05:07:56;;;;;;;19.80;5.80;;;1.40;99.90;;;;;;5035036;28;20029;-70
2021/12/06 05:10:22;;;;;;;16.95;5.93;;;1.40;99.90;;;;;;5035296;28;20025;-70
2021/12/06 05:12:49;;;;;;;17.77;6.22;;;1.50;99.90;;;;;;5034830;28;20061;-70
2021/12/06 05:15:15;;;;;;;18.13;6.43;;;1.50;99.90;;;;;;5034322;28;20033;-71
2021/12/06 05:17:41;;;;;;;23.27;5.38;;;1.50;99.90;;;;;;5035075;28;20025;-70
2021/12/06 05:20:07;;;;;;;15.77;6.00;;;1.60;99.90;;;;;;5035021;28;20028;-71
2021/12/06 05:22:34;;;;;;;8.40;4.93;;;1.60;99.90;;;;;;5034592;28;20515;-71
2021/12/06 05:25:00;;;;;;;12.32;4.28;;;1.70;99.90;;;;;;5034802;28;20117;-70
2021/12/06 05:27:29;;;;;;;14.90;4.55;;;1.70;99.90;;;;;;5071190;23;20052;-69
2021/12/06 05:30:02;;;;;;;26.05;5.78;;;1.70;99.90;;;;;;5035043;28;20028;-68
2021/12/06 05:32:30;;;;;;;18.33;4.87;;;1.70;99.90;;;;;;5053765;28;20112;-68
2021/12/06 05:35:01;;;;;;;14.43;4.55;;;1.70;99.90;;;;;;5053453;28;20451;-68
2021/12/06 05:37:27;;;;;;;17.05;6.05;;;1.70;99.90;;;;;;5052042;28;20044;-68
2021/12/06 05:39:54;;;;;;;14.10;5.43;;;1.80;99.90;;;;;;5053642;28;20075;-68
2021/12/06 05:42:20;;;;;;;16.52;5.05;;;1.80;99.90;;;;;;5041364;28;20091;-69
2021/12/06 05:44:45;;;;;;;17.02;5.00;;;1.80;99.90;;;;;;5033002;28;20430;-69
2021/12/06 05:47:11;;;;;;;9.20;4.95;;;1.80;99.90;;;;;;5035347;28;20079;-68
2021/12/06 05:49:37;;;;;;;22.40;5.93;;;1.90;99.90;;;;;;5033571;28;20021;-68
2021/12/06 05:52:03;;;;;;;9.68;4.80;;;1.90;99.90;;;;;;5032799;28;20025;-68
2021/12/06 05:54:28;;;;;;;21.98;5.22;;;1.90;99.90;;;;;;5052346;28;20473;-68
2021/12/06 05:56:54;;;;;;;12.32;5.28;;;1.90;99.90;;;;;;5053018;28;20025;-68
2021/12/06 05:59:21;;;;;;;21.15;5.75;;;2.00;99.90;;;;;;5053306;28;20397;-68
2021/12/06 06:01:48;;;;;;;14.25;4.95;;;2.00;99.90;;;;;;5048079;28;20389;-68
2021/12/06 06:04:14;;;;;;;16.35;5.07;;;2.00;99.90;;;;;;5031754;28;20037;-68
2021/12/06 06:06:40;;;;;;;15.02;4.63;;;2.00;99.90;;;;;;5033278;28;20018;-68
2021/12/06 06:09:06;;;;;;;18.95;4.97;;;2.00;99.90;;;;;;5033294;28;20033;-68
2021/12/06 06:11:36;;;;;;;20.65;4.70;;;2.00;99.90;;;;;;5033069;28;20111;-68
2021/12/06 06:14:04;;;;;;;28.75;4.75;;;2.00;99.90;;;;;;5032425;28;20067;-68
2021/12/06 06:16:33;;;;;;;13.20;4.43;;;2.10;99.90;;;;;;5032912;28;20025;-68
2021/12/06 06:18:59;;;;;;;20.70;4.75;;;2.10;99.90;;;;;;5031616;28;20025;-68
2021/12/06 06:21:25;;;;;;;12.68;4.68;;;2.10;99.90;;;;;;5032303;28;20059;-69
2021/12/06 06:23:51;;;;;;;15.75;4.90;;;2.20;99.90;;;;;;5032989;28;20057;-68
2021/12/06 06:26:16;;;;;;;24.65;5.32;;;2.20;99.90;;;;;;4996531;28;1041566;-68
2021/12/06 06:28:42;;;;;;;20.80;5.10;;;2.20;99.90;;;;;;5036395;28;20036;-68
2021/12/06 06:31:08;;;;;;;10.45;4.50;;;2.20;99.90;;;;;;5051582;28;20029;-68
2021/12/06 06:33:33;;;;;;;12.52;4.68;;;2.20;99.90;;;;;;5050796;28;20029;-68
2021/12/06 06:35:59;;;;;;;22.83;5.75;;;2.20;99.90;;;;;;5033332;28;20037;-69
2021/12/06 06:38:24;;;;;;;11.00;4.50;;;2.20;99.90;;;;;;5033649;28;20500;-68
2021/12/06 06:40:51;;;;;;;14.32;4.47;;;2.20;99.90;;;;;;5050299;28;20029;-68
2021/12/06 06:43:17;;;;;;;18.35;6.43;;;2.20;99.90;;;;;;5053367;28;20021;-68
2021/12/06 06:45:43;;;;;;;18.05;5.25;;;2.20;99.90;;;;;;5043172;28;20032;-68
2021/12/06 06:48:09;;;;;;;17.88;4.95;;;2.10;99.90;;;;;;5033237;28;20038;-68
2021/12/06 06:50:35;;;;;;;18.27;6.10;;;2.10;99.90;;;;;;5033258;28;20434;-68
2021/12/06 06:53:01;;;;;;;15.20;5.80;;;2.10;99.90;;;;;;5033191;28;20036;-68
2021/12/06 06:55:27;;;;;;;12.50;5.35;;;2.10;99.90;;;;;;5032702;28;20104;-68
2021/12/06 06:57:53;;;;;;;10.45;6.00;;;2.00;99.90;;;;;;5033108;28;20172;-68
2021/12/06 07:00:26;;;;;;;10.40;4.80;;;2.00;99.90;;;;;;5033340;28;20037;-68
2021/12/06 07:02:52;;;;;;;10.45;5.05;;;2.00;99.90;;;;;;5031254;28;20115;-69
2021/12/06 07:05:18;;;;;;;11.90;4.00;;;1.90;99.90;;;;;;5037989;28;20491;-68
2021/12/06 07:07:44;;;;;;;6.15;4.05;;;1.90;99.90;;;;;;5037228;28;20018;-68
2021/12/06 07:10:10;;;;;;;6.82;3.97;;;1.80;99.90;;;;;;5044391;28;20456;-68
2021/12/06 07:12:44;;;;;;;10.02;4.00;;;1.80;99.90;;;;;;5057255;28;20400;-68
2021/12/06 07:15:12;;;;;;;11.07;3.90;;;1.80;99.90;;;;;;5045536;28;20473;-68
2021/12/06 07:17:41;;;;;;;8.25;2.97;;;1.80;99.90;;;;;;5037243;28;20385;-68
2021/12/06 07:20:08;;;;;;;5.45;2.60;;;1.80;99.90;;;;;;5037288;28;20404;-68
2021/12/06 07:22:34;;;;;;;8.45;2.92;;;1.80;99.90;;;;;;5036929;28;20480;-68
2021/12/06 07:25:00;;;;;;;7.70;2.78;;;1.80;99.90;;;;;;5035124;28;20025;-69
2021/12/06 07:27:26;;;;;;;4.35;2.15;;;1.80;99.90;;;;;;5036671;28;20033;-68
2021/12/06 07:29:52;;;;;;;7.80;2.20;;;1.70;99.90;;;;;;5036916;28;20029;-68
2021/12/06 07:32:17;;;;;;;4.07;2.25;;;1.70;99.90;;;;;;5036266;28;20374;-69
2021/12/06 07:34:43;;;;;;;7.97;2.55;;;1.70;99.90;;;;;;5036724;28;20370;-68
2021/12/06 07:37:08;;;;;;;7.75;2.28;;;1.60;99.90;;;;;;5038691;28;20485;-68
2021/12/06 07:39:34;;;;;;;3.20;2.25;;;1.70;99.90;;;;;;5040873;28;20461;-69
2021/12/06 07:42:00;;;;;;;7.38;2.42;;;1.70;99.90;;;;;;5052670;28;20048;-68
2021/12/06 07:44:26;;;;;;;4.93;2.17;;;1.70;99.90;;;;;;5049296;28;20024;-69
2021/12/06 07:46:52;;;;;;;5.82;2.20;;;1.70;99.90;;;;;;5041827;28;20117;-68
2021/12/06 07:49:19;;;;;;;6.88;2.60;;;1.60;99.90;;;;;;5036487;28;20100;-68
2021/12/06 07:51:45;;;;;;;7.57;2.95;;;1.70;99.90;;;;;;5036369;28;20085;-68
2021/12/06 07:54:13;;;;;;;6.03;2.58;;;1.70;99.90;;;;;;5035806;28;20068;-68
2021/12/06 07:56:43;;;;;;;6.72;2.55;;;1.60;99.90;;;;;;5036664;28;20021;-68
2021/12/06 07:59:09;;;;;;;10.15;2.33;;;1.60;99.90;;;;;;5037103;28;20033;-68
2021/12/06 08:01:34;;;;;;;3.78;2.85;;;1.60;99.90;;;;;;5051563;28;20033;-68
2021/12/06 08:04:00;;;;;;;9.70;2.80;;;1.60;99.90;;;;;;5036383;28;20501;-68
2021/12/06 08:06:27;;;;;;;6.47;3.28;;;1.60;99.90;;;;;;5049104;28;20021;-68
2021/12/06 08:08:53;;;;;;;13.43;4.43;;;1.50;99.90;;;;;;5056215;28;20025;-68
2021/12/06 08:11:21;;;;;;;12.50;3.50;;;1.40;99.90;;;;;;5055963;28;20021;-68
2021/12/06 08:13:54;;;;;;;12.27;3.85;;;1.30;99.90;;;;;;5056158;28;20100;-68
2021/12/06 08:16:22;;;;;;;13.55;4.65;;;1.40;99.90;;;;;;5049892;28;20080;-68
2021/12/06 08:18:48;;;;;;;10.02;4.38;;;1.40;99.90;;;;;;5036218;28;20025;-68
2021/12/06 08:21:18;;;;;;;7.15;3.65;;;1.40;99.90;;;;;;5035448;28;20025;-69
2021/12/06 08:23:45;;;;;;;6.85;3.30;;;1.30;99.90;;;;;;5036097;28;20030;-68
2021/12/06 08:26:11;;;;;;;19.58;5.10;;;1.20;99.90;;;;;;5037748;28;20112;-69
2021/12/06 08:28:38;;;;;;;8.23;3.75;;;1.10;99.90;;;;;;5036016;28;20100;-68
2021/12/06 08:31:06;;;;;;;10.63;4.30;;;1.10;99.90;;;;;;5037803;28;20028;-68
2021/12/06 08:33:32;;;;;;;15.82;4.88;;;1.10;99.90;;;;;;5055590;28;20053;-69
2021/12/06 08:35:58;;;;;;;8.70;4.28;;;1.10;99.90;;;;;;5054151;28;20025;-68
2021/12/06 08:38:26;;;;;;;10.65;4.68;;;1.10;99.90;;;;;;5039469;28;20493;-68
2021/12/06 08:40:53;;;;;;;12.27;5.35;;;1.20;99.90;;;;;;5038017;28;20064;-68
2021/12/06 08:43:19;;;;;;;16.33;5.82;;;1.30;99.90;;;;;;5055342;28;20021;-68
2021/12/06 08:45:55;;;;;;;15.60;5.55;;;1.40;99.90;;;;;;5055304;28;20021;-68
2021/12/06 08:48:28;;;;;;;19.13;5.40;;;1.40;99.90;;;;;;5055201;28;20029;-68
2021/12/06 08:50:55;;;;;;;13.90;5.43;;;1.50;99.90;;;;;;5055541;28;20017;-68
2021/12/06 08:53:21;;;;;;;16.38;6.07;;;1.50;99.90;;;;;;5039296;28;20030;-68
2021/12/06 08:55:48;;;;;;;16.35;6.13;;;1.60;99.90;;;;;;5034891;28;20049;-68
2021/12/06 08:58:13;;;;;;;14.43;7.25;;;1.60;99.90;;;;;;5035157;28;20029;-68
2021/12/06 09:00:39;;;;;;;14.60;6.95;;;1.80;99.90;;;;;;5033886;28;20512;-68
2021/12/06 09:03:05;;;;;;;21.38;7.50;;;1.90;99.90;;;;;;5034461;28;20034;-68
2021/12/06 09:05:36;;;;;;;12.75;7.25;;;2.00;99.90;;;;;;5035039;28;20070;-68
2021/12/06 09:08:03;;;;;;;17.42;7.38;;;2.10;99.90;;;;;;5034911;28;20021;-69
2021/12/06 09:10:29;;;;;;;20.80;8.65;;;2.10;99.90;;;;;;5035278;28;20437;-68
2021/12/06 09:12:55;;;;;;;24.58;8.65;;;2.10;99.90;;;;;;5034874;28;20061;-68
2021/12/06 09:15:21;;;;;;;20.85;8.68;;;2.10;99.90;;;;;;5034416;28;20068;-68
2021/12/06 09:17:49;;;;;;;18.10;8.45;;;2.20;99.90;;;;;;5034745;28;20030;-68
2021/12/06 09:20:16;;;;;;;19.30;9.25;;;2.20;99.90;;;;;;5033661;28;20079;-68
2021/12/06 09:22:43;;;;;;;26.02;9.82;;;2.30;99.90;;;;;;5034633;28;20025;-68
2021/12/06 09:25:10;;;;;;;22.42;11.50;;;2.40;99.90;;;;;;5035010;28;20049;-68
2021/12/06 09:27:36;;;;;;;21.55;11.75;;;2.50;99.90;;;;;;5033806;28;20040;-68
2021/12/06 09:30:05;;;;;;;29.45;12.55;;;2.70;99.90;;;;;;5033997;28;20116;-68
2021/12/06 09:32:31;;;;;;;24.33;10.98;;;2.80;99.90;;;;;;5046502;28;20032;-68
2021/12/06 09:34:58;;;;;;;27.52;11.57;;;2.90;99.90;;;;;;5054345;28;20033;-69
2021/12/06 09:37:24;;;;;;;21.00;9.80;;;2.90;99.90;;;;;;5049681;28;20070;-69
2021/12/06 09:39:50;;;;;;;30.98;10.00;;;2.90;99.90;;;;;;5054289;28;20454;-68
2021/12/06 09:42:18;;;;;;;21.42;10.23;;;2.90;99.90;;;;;;5054134;28;20029;-68
2021/12/06 09:44:45;;;;;;;23.60;9.88;;;2.90;99.90;;;;;;5053560;28;20028;-68
2021/12/06 09:47:10;;;;;;;15.13;8.52;;;2.90;99.90;;;;;;5034162;28;20065;-68
2021/12/06 09:49:36;;;;;;;23.30;9.00;;;2.90;99.90;;;;;;5034472;28;20080;-68
2021/12/06 09:52:05;;;;;;;16.15;8.50;;;2.90;99.90;;;;;;5033561;28;20104;-68
2021/12/06 09:54:37;;;;;;;20.33;8.45;;;2.80;99.90;;;;;;5034078;28;20029;-68
2021/12/06 09:57:04;;;;;;;13.15;7.95;;;2.80;99.90;;;;;;5034023;28;20029;-68
2021/12/06 09:59:32;;;;;;;20.58;7.93;;;2.90;99.90;;;;;;5033403;28;20499;-69
2021/12/06 10:02:04;;;;;;;12.95;7.63;;;2.90;99.90;;;;;;5033744;28;20084;-69
2021/12/06 10:04:35;;;;;;;16.35;7.38;;;2.90;99.90;;;;;;5033982;28;20428;-68
2021/12/06 10:07:01;;;;;;;14.10;7.32;;;3.00;99.90;;;;;;5036013;28;20032;-69
2021/12/06 10:09:28;;;;;;;14.23;7.13;;;3.10;99.90;;;;;;5049764;28;20084;-69
2021/12/06 10:11:57;;;;;;;17.60;7.55;;;3.00;99.90;;;;;;5040966;28;20104;-68
2021/12/06 10:14:23;;;;;;;15.20;7.93;;;3.10;99.90;;;;;;5023633;28;20034;-68
2021/12/06 10:16:48;;;;;;;12.85;6.93;;;3.10;99.90;;;;;;5033921;28;20100;-68
2021/12/06 10:19:15;;;;;;;16.08;5.20;;;3.10;99.90;;;;;;5033293;28;20025;-69
2021/12/06 10:21:41;;;;;;;14.40;6.70;;;3.10;99.90;;;;;;5033641;28;20104;-68
2021/12/06 10:24:10;;;;;;;16.23;6.15;;;3.20;99.90;;;;;;5037762;28;20431;-68
2021/12/06 10:26:36;;;;;;;11.77;6.15;;;3.20;99.90;;;;;;5045126;28;20071;-69
2021/12/06 10:29:09;;;;;;;12.35;6.05;;;3.20;99.90;;;;;;5033765;28;20060;-68
2021/12/06 10:31:40;;;;;;;16.30;5.78;;;3.10;99.90;;;;;;5033480;28;20017;-68
2021/12/06 10:34:05;;;;;;;13.77;6.40;;;3.10;99.90;;;;;;5032507;28;20482;-69
2021/12/06 10:36:33;;;;;;;10.50;5.88;;;3.20;99.90;;;;;;5035823;28;20067;-68
2021/12/06 10:39:06;;;;;;;17.60;7.20;;;3.20;99.90;;;;;;5052341;28;20044;-68
2021/12/06 10:41:33;;;;;;;13.07;6.27;;;3.10;99.90;;;;;;5049043;28;20028;-68
2021/12/06 10:44:11;;;;;;;11.18;6.00;;;3.10;99.90;;;;;;5053367;28;20340;-68
2021/12/06 10:47:12;;;;;;;15.95;6.20;;;3.10;99.90;;;;;;5051386;28;20071;-68
2021/12/06 10:49:37;;;;;;;10.85;6.20;;;3.20;99.90;;;;;;5043686;28;20410;-68
2021/12/06 10:52:03;;;;;;;14.02;7.05;;;3.10;99.90;;;;;;5033235;28;20025;-68
2021/12/06 10:54:37;;;;;;;10.30;5.15;;;3.10;99.90;;;;;;5033428;28;20040;-68
2021/12/06 10:57:07;;;;;;;11.10;6.38;;;3.10;99.90;;;;;;5032574;28;20488;-69
2021/12/06 10:59:37;;;;;;;15.35;6.63;;;3.10;99.90;;;;;;5033076;28;20056;-69
2021/12/06 11:02:09;;;;;;;13.38;5.80;;;3.10;99.90;;;;;;5033435;28;20481;-68
2021/12/06 11:04:37;;;;;;;18.45;7.47;;;3.10;99.90;;;;;;5033172;28;20037;-68
2021/12/06 11:07:07;;;;;;;12.93;6.82;;;3.10;99.90;;;;;;5033098;28;20041;-68
2021/12/06 11:09:35;;;;;;;16.35;6.97;;;3.20;99.90;;;;;;5032502;28;20033;-69
2021/12/06 11:12:04;;;;;;;14.68;7.30;;;3.30;99.90;;;;;;5033032;28;20075;-68
2021/12/06 11:14:32;;;;;;;11.02;6.20;;;3.30;99.90;;;;;;5032870;28;20511;-69
2021/12/06 11:17:01;;;;;;;14.85;7.28;;;3.40;99.90;;;;;;5032892;28;20030;-68
2021/12/06 11:19:28;;;;;;;15.57;6.30;;;3.50;99.90;;;;;;5032419;28;20117;-69
2021/12/06 11:22:18;;;;;;;12.70;7.35;;;3.60;99.90;;;;;;5031620;28;20396;-68
2021/12/06 11:24:48;;;;;;;9.30;6.10;;;3.60;99.90;;;;;;5032857;28;20018;-68
2021/12/06 11:27:22;;;;;;;17.13;6.97;;;3.50;99.90;;;;;;5055142;23;20049;-72
2021/12/06 11:29:50;;;;;;;10.40;6.28;;;3.50;99.90;;;;;;5032909;28;20101;-72
2021/12/06 11:32:23;;;;;;;15.25;7.97;;;3.40;99.90;;;;;;5032861;28;20026;-71
2021/12/06 11:34:53;;;;;;;20.17;7.00;;;3.40;99.90;;;;;;5032839;28;20071;-71
2021/12/06 11:37:23;;;;;;;11.02;6.50;;;3.50;99.90;;;;;;5032186;28;20401;-72
2021/12/06 11:40:12;;;;;;;13.23;6.57;;;3.50;99.90;;;;;;5032729;28;20021;-72
2021/12/06 11:42:52;;;;;;;14.43;6.38;;;3.50;99.90;;;;;;5032722;28;20029;-71
2021/12/06 11:45:42;;;;;;;10.65;6.43;;;3.50;99.90;;;;;;5032711;28;20021;-71
2021/12/06 11:48:29;;;;;;;11.77;6.90;;;3.50;99.90;;;;;;5032210;28;20026;-72
2021/12/06 11:51:03;;;;;;;12.88;6.90;;;3.50;99.90;;;;;;5034602;28;20024;-71
2021/12/06 11:53:33;;;;;;;19.17;6.57;;;3.50;99.90;;;;;;5036710;28;20039;-71
2021/12/06 11:56:15;;;;;;;13.77;6.35;;;3.50;99.90;;;;;;5035810;28;20029;-72
2021/12/06 11:58:53;;;;;;;9.38;6.10;;;3.60;99.90;;;;;;5031267;28;20033;-72
2021/12/06 12:01:45;;;;;;;14.43;6.88;;;3.60;99.90;;;;;;5016607;28;20109;-71
2021/12/06 12:04:17;;;;;;;10.23;6.85;;;3.50;99.90;;;;;;5017531;28;20042;-71
2021/12/06 12:06:47;;;;;;;11.23;6.57;;;3.50;99.90;;;;;;5036285;28;20045;-72
2021/12/06 12:09:23;;;;;;;13.48;6.95;;;3.40;99.90;;;;;;5035331;28;20029;-72
2021/12/06 12:12:08;;;;;;;10.27;6.25;;;3.30;99.90;;;;;;5022922;28;20025;-72
2021/12/06 12:14:57;;;;;;;14.98;7.05;;;3.30;99.90;;;;;;5016557;28;20022;-71
2021/12/06 12:17:25;;;;;;;14.15;7.20;;;3.40;99.90;;;;;;5016427;28;20026;-71
2021/12/06 12:19:53;;;;;;;10.55;6.25;;;3.50;99.90;;;;;;4997970;28;20033;-71
2021/12/06 12:22:20;;;;;;;15.57;6.43;;;3.50;99.90;;;;;;5016030;28;20034;-72
2021/12/06 12:24:51;;;;;;;12.18;7.13;;;3.40;99.90;;;;;;5016343;28;20018;-71
2021/12/06 12:27:32;;;;;;;11.57;6.57;;;3.40;99.90;;;;;;5015988;28;20092;-76
2021/12/06 12:29:59;;;;;;;11.45;6.40;;;3.30;99.90;;;;;;5015993;28;20493;-76
2021/12/06 12:32:26;;;;;;;12.23;6.82;;;3.30;99.90;;;;;;5016058;28;20033;-76
2021/12/06 12:34:53;;;;;;;15.82;7.90;;;3.30;99.90;;;;;;5015482;28;20536;-76
2021/12/06 12:37:21;;;;;;;12.48;6.15;;;3.30;99.90;;;;;;4998254;28;20037;-75
2021/12/06 12:40:18;;;;;;;12.93;6.82;;;3.20;99.90;;;;;;5016056;28;20036;-75
2021/12/06 12:42:55;;;;;;;12.25;7.43;;;3.10;99.90;;;;;;5008652;28;20045;-75
2021/12/06 12:45:22;;;;;;;11.07;7.28;;;3.00;99.90;;;;;;5034969;28;20484;-75
2021/12/06 12:47:53;;;;;;;12.60;8.60;;;3.10;99.90;;;;;;5031502;28;20022;-75
2021/12/06 12:50:19;;;;;;;14.30;7.72;;;3.10;99.90;;;;;;5015912;28;20080;-75
2021/12/06 12:52:59;;;;;;;13.30;7.85;;;3.20;99.90;;;;;;5015596;28;20026;-75
2021/12/06 12:55:49;;;;;;;10.70;6.68;;;3.30;99.90;;;;;;5016008;28;20433;-75
2021/12/06 12:58:17;;;;;;;15.93;7.60;;;3.30;99.90;;;;;;5003349;28;20033;-75
2021/12/06 13:00:59;;;;;;;18.58;7.32;;;3.30;99.90;;;;;;5014875;28;20402;-76
2021/12/06 13:03:39;;;;;;;9.25;7.07;;;3.30;99.90;;;;;;5018380;28;20028;-76
2021/12/06 13:06:32;;;;;;;13.43;7.28;;;3.30;99.90;;;;;;5035030;28;20028;-76
2021/12/06 13:09:15;;;;;;;10.90;7.05;;;3.30;99.90;;;;;;5031338;28;20380;-76
2021/12/06 13:11:47;;;;;;;10.98;6.90;;;3.30;99.90;;;;;;5015698;28;20030;-75
2021/12/06 13:14:30;;;;;;;10.55;6.28;;;3.30;99.90;;;;;;5015509;28;20080;-76